createdAt,value
2018-09-04T00:00:01.123Z,95563.00
2018-09-04T00:00:33.192Z,95562.00
2018-09-04T00:01:05.342Z,95560.00
2018-09-04T00:01:37.684Z,95561.00
2018-09-04T00:02:09.889Z,95563.00
2018-09-04T00:02:42.198Z,95568.00
2018-09-04T00:03:14.302Z,95564.00
2018-09-04T00:03:46.435Z,95563.00
2018-09-04T00:04:18.511Z,95567.00
2018-09-04T00:04:50.640Z,95562.00
2018-09-04T00:05:22.709Z,95561.00
2018-09-04T00:05:54.957Z,95568.00
2018-09-04T00:06:27.120Z,95561.00
2018-09-04T00:06:59.342Z,95560.00
2018-09-04T00:07:31.478Z,95563.00
2018-09-04T00:08:03.764Z,95565.00
2018-09-04T00:08:35.845Z,95563.00
2018-09-04T00:09:07.968Z,95559.00
2018-09-04T00:09:40.182Z,95561.00
2018-09-04T00:10:12.325Z,95559.00
2018-09-04T00:10:44.434Z,95560.00
2018-09-04T00:11:16.542Z,95559.00
2018-09-04T00:11:48.692Z,95564.00
2018-09-04T00:12:20.839Z,95556.00
2018-09-04T00:12:53.022Z,95560.00
2018-09-04T00:13:25.179Z,95560.00
2018-09-04T00:13:57.479Z,95557.00
2018-09-04T00:14:29.802Z,95558.00
2018-09-04T00:15:01.923Z,95555.00
2018-09-04T00:15:34.033Z,95556.00
2018-09-04T00:16:06.403Z,95553.00
2018-09-04T00:16:38.561Z,95557.00
2018-09-04T00:17:10.678Z,95555.00
2018-09-04T00:17:42.781Z,95553.00
2018-09-04T00:18:14.875Z,95560.00
2018-09-04T00:18:47.008Z,95559.00
2018-09-04T00:19:19.164Z,95555.00
2018-09-04T00:19:51.390Z,95554.00
2018-09-04T00:20:23.809Z,95556.00
2018-09-04T00:20:55.962Z,95554.00
2018-09-04T00:21:28.074Z,95553.00
2018-09-04T00:22:00.194Z,95553.00
2018-09-04T00:22:32.288Z,95553.00
2018-09-04T00:23:04.351Z,95551.00
2018-09-04T00:23:36.441Z,95551.00
2018-09-04T00:24:08.541Z,95550.00
2018-09-04T00:24:40.819Z,95550.00
2018-09-04T00:25:13.128Z,95556.00
2018-09-04T00:25:45.263Z,95550.00
2018-09-04T00:26:17.498Z,95550.00
2018-09-04T00:26:49.660Z,95547.00
2018-09-04T00:27:21.776Z,95547.00
2018-09-04T00:27:53.944Z,95552.00
2018-09-04T00:28:26.047Z,95546.00
2018-09-04T00:28:58.276Z,95547.00
2018-09-04T00:29:30.567Z,95554.00
2018-09-04T00:30:02.754Z,95551.00
2018-09-04T00:30:34.851Z,95549.00
2018-09-04T00:31:07.073Z,95549.00
2018-09-04T00:31:39.332Z,95552.00
2018-09-04T00:32:11.640Z,95550.00
2018-09-04T00:32:43.778Z,95545.00
2018-09-04T00:33:16.154Z,95548.00
2018-09-04T00:33:48.247Z,95548.00
2018-09-04T00:34:20.392Z,95544.00
2018-09-04T00:34:52.544Z,95546.00
2018-09-04T00:35:24.646Z,95547.00
2018-09-04T00:35:56.741Z,95546.00
2018-09-04T00:36:28.865Z,95547.00
2018-09-04T00:37:00.958Z,95548.00
2018-09-04T00:37:33.222Z,95544.00
2018-09-04T00:38:05.323Z,95548.00
2018-09-04T00:38:37.459Z,95544.00
2018-09-04T00:39:09.540Z,95548.00
2018-09-04T00:39:41.771Z,95550.00
2018-09-04T00:40:13.893Z,95544.00
2018-09-04T00:40:46.009Z,95550.00
2018-09-04T00:41:18.144Z,95544.00
2018-09-04T00:41:50.235Z,95546.00
2018-09-04T00:42:22.302Z,95543.00
2018-09-04T00:42:54.597Z,95545.00
2018-09-04T00:43:27.080Z,95547.00
2018-09-04T00:43:59.256Z,95547.00
2018-09-04T00:44:31.352Z,95548.00
2018-09-04T00:45:03.470Z,95543.00
2018-09-04T00:45:35.795Z,95544.00
2018-09-04T00:46:07.890Z,95542.00
2018-09-04T00:46:40.101Z,95544.00
2018-09-04T00:47:12.449Z,95547.00
2018-09-04T00:47:44.724Z,95545.00
2018-09-04T00:48:16.935Z,95547.00
2018-09-04T00:48:49.049Z,95543.00
2018-09-04T00:49:21.129Z,95545.00
2018-09-04T00:49:53.210Z,95536.00
2018-09-04T00:50:25.326Z,95541.00
2018-09-04T00:50:57.463Z,95544.00
2018-09-04T00:51:29.586Z,95544.00
2018-09-04T00:52:01.915Z,95547.00
2018-09-04T00:52:34.192Z,95542.00
2018-09-04T00:53:06.325Z,95542.00
2018-09-04T00:53:38.469Z,95543.00
2018-09-04T00:54:10.586Z,95545.00
2018-09-04T00:54:42.653Z,95542.00
2018-09-04T00:55:14.878Z,95542.00
2018-09-04T00:55:46.984Z,95540.00
2018-09-04T00:56:19.173Z,95545.00
2018-09-04T00:56:51.310Z,95538.00
2018-09-04T00:57:23.423Z,95545.00
2018-09-04T00:57:55.502Z,95542.00
2018-09-04T00:58:27.596Z,95546.00
2018-09-04T00:59:00.087Z,95542.00
2018-09-04T00:59:32.158Z,95542.00
2018-09-04T01:00:04.309Z,95544.00
2018-09-04T01:00:36.418Z,95541.00
2018-09-04T01:01:08.636Z,95539.00
2018-09-04T01:01:40.954Z,95543.00
2018-09-04T01:02:13.058Z,95541.00
2018-09-04T01:02:45.173Z,95541.00
2018-09-04T01:03:17.389Z,95538.00
2018-09-04T01:03:49.509Z,95539.00
2018-09-04T01:04:21.691Z,95540.00
2018-09-04T01:04:53.808Z,95538.00
2018-09-04T01:05:25.897Z,95537.00
2018-09-04T01:05:58.042Z,95536.00
2018-09-04T01:06:30.153Z,95538.00
2018-09-04T01:07:02.283Z,95539.00
2018-09-04T01:07:34.404Z,95536.00
2018-09-04T01:08:06.487Z,95542.00
2018-09-04T01:08:38.616Z,95543.00
2018-09-04T01:09:10.753Z,95540.00
2018-09-04T01:09:43.139Z,95541.00
2018-09-04T01:10:15.359Z,95544.00
2018-09-04T01:10:47.434Z,95542.00
2018-09-04T01:11:19.554Z,95540.00
2018-09-04T01:11:51.665Z,95540.00
2018-09-04T01:12:23.778Z,95538.00
2018-09-04T01:12:55.887Z,95541.00
2018-09-04T01:13:28.127Z,95541.00
2018-09-04T01:14:00.248Z,95543.00
2018-09-04T01:14:32.405Z,95539.00
2018-09-04T01:15:04.580Z,95543.00
2018-09-04T01:15:36.842Z,95532.00
2018-09-04T01:16:08.894Z,95537.00
2018-09-04T01:16:41.119Z,95540.00
2018-09-04T01:17:13.239Z,95534.00
2018-09-04T01:17:45.442Z,95534.00
2018-09-04T01:18:17.569Z,95533.00
2018-09-04T01:18:49.677Z,95533.00
2018-09-04T01:19:21.846Z,95534.00
2018-09-04T01:19:53.985Z,95530.00
2018-09-04T01:20:26.079Z,95531.00
2018-09-04T01:20:58.179Z,95534.00
2018-09-04T01:21:30.290Z,95538.00
2018-09-04T01:22:02.442Z,95533.00
2018-09-04T01:22:34.631Z,95536.00
2018-09-04T01:23:06.918Z,95534.00
2018-09-04T01:23:39.013Z,95533.00
2018-09-04T01:24:11.151Z,95533.00
2018-09-04T01:24:43.277Z,95534.00
2018-09-04T01:25:15.360Z,95536.00
2018-09-04T01:25:47.520Z,95538.00
2018-09-04T01:26:19.779Z,95537.00
2018-09-04T01:26:51.889Z,95540.00
2018-09-04T01:27:24.130Z,95539.00
2018-09-04T01:27:56.228Z,95540.00
2018-09-04T01:28:28.493Z,95540.00
2018-09-04T01:29:00.592Z,95538.00
2018-09-04T01:29:32.694Z,95538.00
2018-09-04T01:30:04.805Z,95538.00
2018-09-04T01:30:36.997Z,95535.00
2018-09-04T01:31:09.252Z,95541.00
2018-09-04T01:31:41.553Z,95534.00
2018-09-04T01:32:13.718Z,95534.00
2018-09-04T01:32:45.784Z,95538.00
2018-09-04T01:33:17.974Z,95538.00
2018-09-04T01:33:50.082Z,95536.00
2018-09-04T01:34:22.193Z,95537.00
2018-09-04T01:34:54.302Z,95540.00
2018-09-04T01:35:26.384Z,95535.00
2018-09-04T01:35:58.492Z,95536.00
2018-09-04T01:36:30.630Z,95537.00
2018-09-04T01:37:02.847Z,95536.00
2018-09-04T01:37:35.042Z,95535.00
2018-09-04T01:38:07.143Z,95538.00
2018-09-04T01:38:39.221Z,95540.00
2018-09-04T01:39:11.366Z,95537.00
2018-09-04T01:39:43.657Z,95541.00
2018-09-04T01:40:15.764Z,95535.00
2018-09-04T01:40:48.071Z,95536.00
2018-09-04T01:41:20.482Z,95535.00
2018-09-04T01:41:52.610Z,95542.00
2018-09-04T01:42:24.714Z,95540.00
2018-09-04T01:42:57.030Z,95542.00
2018-09-04T01:43:29.147Z,95541.00
2018-09-04T01:44:01.257Z,95540.00
2018-09-04T01:44:33.382Z,95540.00
2018-09-04T01:45:05.525Z,95539.00
2018-09-04T01:45:37.802Z,95536.00
2018-09-04T01:46:09.923Z,95539.00
2018-09-04T01:46:42.102Z,95541.00
2018-09-04T01:47:14.262Z,95539.00
2018-09-04T01:47:46.647Z,95537.00
2018-09-04T01:48:18.796Z,95541.00
2018-09-04T01:48:50.993Z,95544.00
2018-09-04T01:49:23.143Z,95540.00
2018-09-04T01:49:55.305Z,95540.00
2018-09-04T01:50:27.549Z,95539.00
2018-09-04T01:50:59.604Z,95539.00
2018-09-04T01:51:31.711Z,95539.00
2018-09-04T01:52:03.820Z,95539.00
2018-09-04T01:52:36.078Z,95539.00
2018-09-04T01:53:08.134Z,95540.00
2018-09-04T01:53:40.272Z,95538.00
2018-09-04T01:54:12.422Z,95540.00
2018-09-04T01:54:44.589Z,95536.00
2018-09-04T01:55:16.719Z,95536.00
2018-09-04T01:55:48.907Z,95540.00
2018-09-04T01:56:21.104Z,95534.00
2018-09-04T01:56:53.225Z,95535.00
2018-09-04T01:57:25.357Z,95530.00
2018-09-04T01:57:57.565Z,95536.00
2018-09-04T01:58:29.765Z,95534.00
2018-09-04T01:59:01.867Z,95537.00
2018-09-04T01:59:34.207Z,95536.00
2018-09-04T02:00:06.326Z,95538.00
2018-09-04T02:00:38.492Z,95540.00
2018-09-04T02:01:10.824Z,95533.00
2018-09-04T02:01:42.921Z,95533.00
2018-09-04T02:02:14.985Z,95535.00
2018-09-04T02:02:47.098Z,95537.00
2018-09-04T02:03:19.153Z,95532.00
2018-09-04T02:03:51.418Z,95535.00
2018-09-04T02:04:23.496Z,95533.00
2018-09-04T02:04:55.597Z,95536.00
2018-09-04T02:05:27.762Z,95529.00
2018-09-04T02:05:59.833Z,95537.00
2018-09-04T02:06:32.134Z,95535.00
2018-09-04T02:07:04.201Z,95535.00
2018-09-04T02:07:36.449Z,95533.00
2018-09-04T02:08:08.560Z,95535.00
2018-09-04T02:08:40.653Z,95535.00
2018-09-04T02:09:12.762Z,95535.00
2018-09-04T02:09:45.061Z,95533.00
2018-09-04T02:10:17.178Z,95535.00
2018-09-04T02:10:49.576Z,95532.00
2018-09-04T02:11:21.663Z,95535.00
2018-09-04T02:11:53.871Z,95531.00
2018-09-04T02:12:26.007Z,95533.00
2018-09-04T02:12:58.130Z,95535.00
2018-09-04T02:13:30.239Z,95533.00
2018-09-04T02:14:02.497Z,95537.00
2018-09-04T02:14:34.642Z,95533.00
2018-09-04T02:15:06.812Z,95534.00
2018-09-04T02:15:38.904Z,95539.00
2018-09-04T02:16:11.256Z,95536.00
2018-09-04T02:16:43.362Z,95534.00
2018-09-04T02:17:15.448Z,95535.00
2018-09-04T02:17:47.547Z,95538.00
2018-09-04T02:18:19.666Z,95537.00
2018-09-04T02:18:51.794Z,95534.00
2018-09-04T02:19:24.069Z,95539.00
2018-09-04T02:19:56.138Z,95537.00
2018-09-04T02:20:28.208Z,95541.00
2018-09-04T02:21:00.394Z,95538.00
2018-09-04T02:21:32.544Z,95535.00
2018-09-04T02:22:04.671Z,95538.00
2018-09-04T02:22:36.772Z,95539.00
2018-09-04T02:23:08.965Z,95542.00
2018-09-04T02:23:41.070Z,95538.00
2018-09-04T02:24:13.246Z,95536.00
2018-09-04T02:24:45.336Z,95535.00
2018-09-04T02:25:17.473Z,95530.00
2018-09-04T02:25:49.677Z,95534.00
2018-09-04T02:26:21.873Z,95526.00
2018-09-04T02:26:53.970Z,95527.00
2018-09-04T02:27:26.070Z,95530.00
2018-09-04T02:27:58.186Z,95529.00
2018-09-04T02:28:30.377Z,95527.00
2018-09-04T02:29:02.477Z,95531.00
2018-09-04T02:29:34.807Z,95526.00
2018-09-04T02:30:06.870Z,95532.00
2018-09-04T02:30:39.105Z,95524.00
2018-09-04T02:31:11.251Z,95522.00
2018-09-04T02:31:43.390Z,95525.00
2018-09-04T02:32:15.576Z,95524.00
2018-09-04T02:32:47.693Z,95528.00
2018-09-04T02:33:19.779Z,95529.00
2018-09-04T02:33:52.131Z,95526.00
2018-09-04T02:34:24.217Z,95529.00
2018-09-04T02:34:56.313Z,95533.00
2018-09-04T02:35:28.409Z,95529.00
2018-09-04T02:36:00.705Z,95535.00
2018-09-04T02:36:33.006Z,95531.00
2018-09-04T02:37:05.150Z,95533.00
2018-09-04T02:37:37.417Z,95531.00
2018-09-04T02:38:09.479Z,95529.00
2018-09-04T02:38:41.688Z,95534.00
2018-09-04T02:39:13.827Z,95539.00
2018-09-04T02:39:45.954Z,95531.00
2018-09-04T02:40:18.029Z,95542.00
2018-09-04T02:40:50.145Z,95541.00
2018-09-04T02:41:22.261Z,95537.00
2018-09-04T02:41:54.373Z,95542.00
2018-09-04T02:42:26.479Z,95544.00
2018-09-04T02:42:58.589Z,95538.00
2018-09-04T02:43:30.685Z,95542.00
2018-09-04T02:44:02.800Z,95544.00
2018-09-04T02:44:34.885Z,95547.00
2018-09-04T02:45:07.059Z,95547.00
2018-09-04T02:45:39.477Z,95548.00
2018-09-04T02:46:11.607Z,95544.00
2018-09-04T02:46:43.737Z,95551.00
2018-09-04T02:47:15.814Z,95546.00
2018-09-04T02:47:47.882Z,95548.00
2018-09-04T02:48:20.032Z,95550.00
2018-09-04T02:48:52.335Z,95549.00
2018-09-04T02:49:24.459Z,95546.00
2018-09-04T02:49:56.559Z,95551.00
2018-09-04T02:50:28.663Z,95548.00
2018-09-04T02:51:00.815Z,95545.00
2018-09-04T02:51:32.962Z,95544.00
2018-09-04T02:52:05.036Z,95542.00
2018-09-04T02:52:37.168Z,95544.00
2018-09-04T02:53:09.256Z,95545.00
2018-09-04T02:53:41.321Z,95548.00
2018-09-04T02:54:13.682Z,95542.00
2018-09-04T02:54:45.838Z,95544.00
2018-09-04T02:55:17.901Z,95545.00
2018-09-04T02:55:50.008Z,95543.00
2018-09-04T02:56:22.116Z,95544.00
2018-09-04T02:56:54.338Z,95542.00
2018-09-04T02:57:26.429Z,95539.00
2018-09-04T02:57:58.544Z,95537.00
2018-09-04T02:58:30.651Z,95533.00
2018-09-04T02:59:02.761Z,95531.00
2018-09-04T02:59:34.870Z,95535.00
2018-09-04T03:00:06.955Z,95535.00
2018-09-04T03:00:39.030Z,95533.00
2018-09-04T03:01:11.173Z,95534.00
2018-09-04T03:01:43.384Z,95534.00
2018-09-04T03:02:15.506Z,95535.00
2018-09-04T03:02:47.649Z,95528.00
2018-09-04T03:03:19.952Z,95528.00
2018-09-04T03:03:52.056Z,95530.00
2018-09-04T03:04:24.147Z,95530.00
2018-09-04T03:04:56.266Z,95532.00
2018-09-04T03:05:28.369Z,95531.00
2018-09-04T03:06:00.461Z,95534.00
2018-09-04T03:06:32.566Z,95533.00
2018-09-04T03:07:04.634Z,95532.00
2018-09-04T03:07:36.691Z,95534.00
2018-09-04T03:08:08.925Z,95535.00
2018-09-04T03:08:41.028Z,95528.00
2018-09-04T03:09:13.240Z,95532.00
2018-09-04T03:09:45.350Z,95532.00
2018-09-04T03:10:17.482Z,95533.00
2018-09-04T03:10:49.569Z,95534.00
2018-09-04T03:11:21.686Z,95529.00
2018-09-04T03:11:53.932Z,95535.00
2018-09-04T03:12:26.051Z,95539.00
2018-09-04T03:12:58.197Z,95537.00
2018-09-04T03:13:30.445Z,95537.00
2018-09-04T03:14:02.772Z,95539.00
2018-09-04T03:14:34.729Z,95538.00
2018-09-04T03:15:06.873Z,95537.00
2018-09-04T03:15:39.081Z,95542.00
2018-09-04T03:16:11.157Z,95534.00
2018-09-04T03:16:43.258Z,95531.00
2018-09-04T03:17:15.416Z,95535.00
2018-09-04T03:17:47.637Z,95530.00
2018-09-04T03:18:19.791Z,95532.00
2018-09-04T03:18:51.885Z,95538.00
2018-09-04T03:19:23.986Z,95538.00
2018-09-04T03:19:56.086Z,95540.00
2018-09-04T03:20:28.162Z,95536.00
2018-09-04T03:21:00.273Z,95539.00
2018-09-04T03:21:32.509Z,95538.00
2018-09-04T03:22:04.594Z,95539.00
2018-09-04T03:22:36.695Z,95533.00
2018-09-04T03:23:08.802Z,95533.00
2018-09-04T03:23:40.988Z,95530.00
2018-09-04T03:24:13.084Z,95533.00
2018-09-04T03:24:45.190Z,95526.00
2018-09-04T03:25:17.304Z,95531.00
2018-09-04T03:25:49.440Z,95532.00
2018-09-04T03:26:21.548Z,95531.00
2018-09-04T03:26:53.617Z,95531.00
2018-09-04T03:27:25.736Z,95532.00
2018-09-04T03:27:58.113Z,95529.00
2018-09-04T03:28:30.185Z,95530.00
2018-09-04T03:29:02.304Z,95532.00
2018-09-04T03:29:34.406Z,95535.00
2018-09-04T03:30:06.515Z,95533.00
2018-09-04T03:30:38.780Z,95532.00
2018-09-04T03:31:10.986Z,95532.00
2018-09-04T03:31:43.126Z,95530.00
2018-09-04T03:32:15.185Z,95532.00
2018-09-04T03:32:47.300Z,95530.00
2018-09-04T03:33:19.453Z,95529.00
2018-09-04T03:33:51.526Z,95529.00
2018-09-04T03:34:23.688Z,95526.00
2018-09-04T03:34:55.805Z,95532.00
2018-09-04T03:35:28.006Z,95532.00
2018-09-04T03:36:00.151Z,95534.00
2018-09-04T03:36:32.258Z,95531.00
2018-09-04T03:37:04.315Z,95531.00
2018-09-04T03:37:36.385Z,95533.00
2018-09-04T03:38:08.490Z,95533.00
2018-09-04T03:38:40.610Z,95536.00
2018-09-04T03:39:12.685Z,95537.00
2018-09-04T03:39:44.871Z,95535.00
2018-09-04T03:40:16.965Z,95539.00
2018-09-04T03:40:49.027Z,95534.00
2018-09-04T03:41:21.165Z,95536.00
2018-09-04T03:41:53.333Z,95535.00
2018-09-04T03:42:25.551Z,95539.00
2018-09-04T03:42:57.701Z,95541.00
2018-09-04T03:43:29.779Z,95536.00
2018-09-04T03:44:01.905Z,95537.00
2018-09-04T03:44:33.958Z,95539.00
2018-09-04T03:45:06.084Z,95536.00
2018-09-04T03:45:38.168Z,95536.00
2018-09-04T03:46:10.270Z,95533.00
2018-09-04T03:46:42.349Z,95538.00
2018-09-04T03:47:14.568Z,95536.00
2018-09-04T03:47:46.653Z,95533.00
2018-09-04T03:48:18.738Z,95537.00
2018-09-04T03:48:50.794Z,95534.00
2018-09-04T03:49:22.909Z,95537.00
2018-09-04T03:49:55.134Z,95535.00
2018-09-04T03:50:27.291Z,95540.00
2018-09-04T03:50:59.393Z,95540.00
2018-09-04T03:51:31.771Z,95542.00
2018-09-04T03:52:03.865Z,95542.00
2018-09-04T03:52:35.930Z,95546.00
2018-09-04T03:53:07.995Z,95540.00
2018-09-04T03:53:40.102Z,95542.00
2018-09-04T03:54:12.188Z,95537.00
2018-09-04T03:54:44.257Z,95540.00
2018-09-04T03:55:16.314Z,95543.00
2018-09-04T03:55:48.385Z,95542.00
2018-09-04T03:56:20.571Z,95542.00
2018-09-04T03:56:52.636Z,95541.00
2018-09-04T03:57:24.709Z,95539.00
2018-09-04T03:57:56.798Z,95541.00
2018-09-04T03:58:28.878Z,95540.00
2018-09-04T03:59:00.946Z,95539.00
2018-09-04T03:59:33.034Z,95539.00
2018-09-04T04:00:05.142Z,95540.00
2018-09-04T04:00:37.218Z,95536.00
2018-09-04T04:01:09.309Z,95539.00
2018-09-04T04:01:41.395Z,95540.00
2018-09-04T04:02:13.476Z,95536.00
2018-09-04T04:02:45.577Z,95540.00
2018-09-04T04:03:17.656Z,95541.00
2018-09-04T04:03:49.716Z,95542.00
2018-09-04T04:04:22.105Z,95537.00
2018-09-04T04:04:54.281Z,95539.00
2018-09-04T04:05:26.381Z,95539.00
2018-09-04T04:05:58.703Z,95545.00
2018-09-04T04:06:30.885Z,95545.00
2018-09-04T04:07:02.950Z,95542.00
2018-09-04T04:07:35.025Z,95543.00
2018-09-04T04:08:07.155Z,95545.00
2018-09-04T04:08:39.248Z,95541.00
2018-09-04T04:09:11.351Z,95543.00
2018-09-04T04:09:43.398Z,95542.00
2018-09-04T04:10:15.492Z,95544.00
2018-09-04T04:10:47.560Z,95542.00
2018-09-04T04:11:19.632Z,95542.00
2018-09-04T04:11:51.726Z,95544.00
2018-09-04T04:12:23.800Z,95539.00
2018-09-04T04:12:55.904Z,95540.00
2018-09-04T04:13:28.009Z,95543.00
2018-09-04T04:14:00.092Z,95539.00
2018-09-04T04:14:32.148Z,95541.00
2018-09-04T04:15:04.396Z,95539.00
2018-09-04T04:15:36.476Z,95543.00
2018-09-04T04:16:08.557Z,95536.00
2018-09-04T04:16:40.872Z,95544.00
2018-09-04T04:17:12.947Z,95538.00
2018-09-04T04:17:45.020Z,95545.00
2018-09-04T04:18:17.130Z,95545.00
2018-09-04T04:18:49.204Z,95544.00
2018-09-04T04:19:21.574Z,95547.00
2018-09-04T04:19:53.645Z,95550.00
2018-09-04T04:20:25.713Z,95546.00
2018-09-04T04:20:57.829Z,95544.00
2018-09-04T04:21:29.933Z,95542.00
2018-09-04T04:22:02.188Z,95545.00
2018-09-04T04:22:34.247Z,95547.00
2018-09-04T04:23:06.379Z,95545.00
2018-09-04T04:23:38.486Z,95544.00
2018-09-04T04:24:10.693Z,95545.00
2018-09-04T04:24:42.814Z,95549.00
2018-09-04T04:25:14.889Z,95553.00
2018-09-04T04:25:47.032Z,95549.00
2018-09-04T04:26:19.098Z,95550.00
2018-09-04T04:26:51.206Z,95552.00
2018-09-04T04:27:23.286Z,95549.00
2018-09-04T04:27:55.412Z,95553.00
2018-09-04T04:28:27.631Z,95555.00
2018-09-04T04:28:59.934Z,95551.00
2018-09-04T04:29:32.011Z,95554.00
2018-09-04T04:30:04.173Z,95558.00
2018-09-04T04:30:36.229Z,95554.00
2018-09-04T04:31:08.429Z,95556.00
2018-09-04T04:31:40.478Z,95555.00
2018-09-04T04:32:12.565Z,95557.00
2018-09-04T04:32:44.686Z,95557.00
2018-09-04T04:33:16.756Z,95556.00
2018-09-04T04:33:48.909Z,95556.00
2018-09-04T04:34:20.983Z,95558.00
2018-09-04T04:34:53.076Z,95554.00
2018-09-04T04:35:25.160Z,95558.00
2018-09-04T04:35:57.323Z,95563.00
2018-09-04T04:36:29.437Z,95556.00
2018-09-04T04:37:01.585Z,95558.00
2018-09-04T04:37:33.689Z,95556.00
2018-09-04T04:38:05.785Z,95561.00
2018-09-04T04:38:37.974Z,95560.00
2018-09-04T04:39:10.058Z,95553.00
2018-09-04T04:39:42.111Z,95561.00
2018-09-04T04:40:14.230Z,95564.00
2018-09-04T04:40:46.379Z,95561.00
2018-09-04T04:41:18.453Z,95560.00
2018-09-04T04:41:50.514Z,95557.00
2018-09-04T04:42:22.643Z,95562.00
2018-09-04T04:42:54.711Z,95559.00
2018-09-04T04:43:26.846Z,95558.00
2018-09-04T04:43:58.942Z,95566.00
2018-09-04T04:44:31.057Z,95563.00
2018-09-04T04:45:03.157Z,95566.00
2018-09-04T04:45:35.381Z,95563.00
2018-09-04T04:46:07.573Z,95565.00
2018-09-04T04:46:39.769Z,95564.00
2018-09-04T04:47:11.844Z,95565.00
2018-09-04T04:47:44.070Z,95569.00
2018-09-04T04:48:16.132Z,95570.00
2018-09-04T04:48:48.252Z,95572.00
2018-09-04T04:49:20.539Z,95573.00
2018-09-04T04:49:52.655Z,95574.00
2018-09-04T04:50:25.021Z,95577.00
2018-09-04T04:50:57.126Z,95576.00
2018-09-04T04:51:29.204Z,95578.00
2018-09-04T04:52:01.289Z,95572.00
2018-09-04T04:52:33.611Z,95579.00
2018-09-04T04:53:05.686Z,95579.00
2018-09-04T04:53:37.877Z,95575.00
2018-09-04T04:54:09.989Z,95572.00
2018-09-04T04:54:42.106Z,95574.00
2018-09-04T04:55:14.211Z,95575.00
2018-09-04T04:55:46.299Z,95568.00
2018-09-04T04:56:18.382Z,95567.00
2018-09-04T04:56:50.613Z,95565.00
2018-09-04T04:57:22.783Z,95567.00
2018-09-04T04:57:54.893Z,95563.00
2018-09-04T04:58:26.992Z,95570.00
2018-09-04T04:58:59.195Z,95570.00
2018-09-04T04:59:31.324Z,95570.00
2018-09-04T05:00:03.394Z,95568.00
2018-09-04T05:00:35.576Z,95568.00
2018-09-04T05:01:07.895Z,95566.00
2018-09-04T05:01:40.066Z,95565.00
2018-09-04T05:02:12.132Z,95568.00
2018-09-04T05:02:44.234Z,95569.00
2018-09-04T05:03:16.355Z,95569.00
2018-09-04T05:03:48.417Z,95568.00
2018-09-04T05:04:20.645Z,95569.00
2018-09-04T05:04:52.861Z,95567.00
2018-09-04T05:05:24.967Z,95570.00
2018-09-04T05:05:57.054Z,95569.00
2018-09-04T05:06:29.231Z,95570.00
2018-09-04T05:07:01.359Z,95573.00
2018-09-04T05:07:33.484Z,95572.00
2018-09-04T05:08:05.638Z,95573.00
2018-09-04T05:08:37.717Z,95577.00
2018-09-04T05:09:09.777Z,95576.00
2018-09-04T05:09:42.011Z,95577.00
2018-09-04T05:10:14.150Z,95576.00
2018-09-04T05:10:46.290Z,95577.00
2018-09-04T05:11:18.770Z,95573.00
2018-09-04T05:11:50.713Z,95579.00
2018-09-04T05:12:22.833Z,95572.00
2018-09-04T05:12:54.904Z,95573.00
2018-09-04T05:13:27.177Z,95574.00
2018-09-04T05:13:59.417Z,95572.00
2018-09-04T05:14:31.738Z,95576.00
2018-09-04T05:15:03.996Z,95574.00
2018-09-04T05:15:36.093Z,95570.00
2018-09-04T05:16:08.192Z,95570.00
2018-09-04T05:16:40.291Z,95566.00
2018-09-04T05:17:12.609Z,95568.00
2018-09-04T05:17:44.820Z,95570.00
2018-09-04T05:18:16.879Z,95570.00
2018-09-04T05:18:49.069Z,95572.00
2018-09-04T05:19:21.179Z,95568.00
2018-09-04T05:19:53.275Z,95574.00
2018-09-04T05:20:25.338Z,95573.00
2018-09-04T05:20:57.588Z,95574.00
2018-09-04T05:21:29.705Z,95572.00
2018-09-04T05:22:01.833Z,95569.00
2018-09-04T05:22:34.078Z,95570.00
2018-09-04T05:23:06.306Z,95571.00
2018-09-04T05:23:38.537Z,95567.00
2018-09-04T05:24:10.714Z,95569.00
2018-09-04T05:24:42.809Z,95568.00
2018-09-04T05:25:14.911Z,95567.00
2018-09-04T05:25:47.162Z,95568.00
2018-09-04T05:26:19.498Z,95572.00
2018-09-04T05:26:51.737Z,95570.00
2018-09-04T05:27:24.154Z,95568.00
2018-09-04T05:27:56.229Z,95569.00
2018-09-04T05:28:28.349Z,95576.00
2018-09-04T05:29:00.449Z,95574.00
2018-09-04T05:29:32.671Z,95578.00
2018-09-04T05:30:05.070Z,95583.00
2018-09-04T05:30:37.377Z,95577.00
2018-09-04T05:31:09.454Z,95582.00
2018-09-04T05:31:42.183Z,95582.00
2018-09-04T05:32:14.318Z,95580.00
2018-09-04T05:32:46.684Z,95579.00
2018-09-04T05:33:18.799Z,95581.00
2018-09-04T05:33:50.876Z,95576.00
2018-09-04T05:34:22.955Z,95582.00
2018-09-04T05:34:55.410Z,95581.00
2018-09-04T05:35:27.481Z,95582.00
2018-09-04T05:35:59.558Z,95576.00
2018-09-04T05:36:31.639Z,95577.00
2018-09-04T05:37:03.933Z,95577.00
2018-09-04T05:37:36.051Z,95579.00
2018-09-04T05:38:08.097Z,95578.00
2018-09-04T05:38:40.212Z,95580.00
2018-09-04T05:39:12.296Z,95581.00
2018-09-04T05:39:44.482Z,95580.00
2018-09-04T05:40:16.785Z,95575.00
2018-09-04T05:40:48.895Z,95578.00
2018-09-04T05:41:21.110Z,95576.00
2018-09-04T05:41:53.212Z,95575.00
2018-09-04T05:42:25.383Z,95577.00
2018-09-04T05:42:57.490Z,95580.00
2018-09-04T05:43:29.586Z,95575.00
2018-09-04T05:44:01.697Z,95576.00
2018-09-04T05:44:33.774Z,95573.00
2018-09-04T05:45:06.031Z,95578.00
2018-09-04T05:45:38.276Z,95575.00
2018-09-04T05:46:10.346Z,95576.00
2018-09-04T05:46:42.478Z,95576.00
2018-09-04T05:47:14.616Z,95576.00
2018-09-04T05:47:46.775Z,95579.00
2018-09-04T05:48:18.878Z,95576.00
2018-09-04T05:48:50.967Z,95575.00
2018-09-04T05:49:23.051Z,95577.00
2018-09-04T05:49:55.270Z,95579.00
2018-09-04T05:50:27.365Z,95576.00
2018-09-04T05:50:59.461Z,95577.00
2018-09-04T05:51:31.659Z,95577.00
2018-09-04T05:52:03.867Z,95578.00
2018-09-04T05:52:36.076Z,95578.00
2018-09-04T05:53:08.289Z,95580.00
2018-09-04T05:53:40.586Z,95583.00
2018-09-04T05:54:12.887Z,95577.00
2018-09-04T05:54:45.018Z,95578.00
2018-09-04T05:55:17.271Z,95578.00
2018-09-04T05:55:49.853Z,95580.00
2018-09-04T05:56:22.039Z,95582.00
2018-09-04T05:56:54.254Z,95582.00
2018-09-04T05:57:26.550Z,95585.00
2018-09-04T05:57:58.621Z,95586.00
2018-09-04T05:58:30.717Z,95584.00
2018-09-04T05:59:02.845Z,95585.00
2018-09-04T05:59:35.065Z,95588.00
2018-09-04T06:00:07.200Z,95586.00
2018-09-04T06:00:39.301Z,95584.00
2018-09-04T06:01:11.402Z,95583.00
2018-09-04T06:01:43.600Z,95587.00
2018-09-04T06:02:15.653Z,95585.00
2018-09-04T06:02:47.765Z,95589.00
2018-09-04T06:03:19.886Z,95587.00
2018-09-04T06:03:52.337Z,95588.00
2018-09-04T06:04:24.434Z,95588.00
2018-09-04T06:04:56.621Z,95588.00
2018-09-04T06:05:28.764Z,95590.00
2018-09-04T06:06:00.973Z,95590.00
2018-09-04T06:06:33.051Z,95590.00
2018-09-04T06:07:05.146Z,95590.00
2018-09-04T06:07:37.366Z,95589.00
2018-09-04T06:08:09.576Z,95587.00
2018-09-04T06:08:41.695Z,95592.00
2018-09-04T06:09:13.945Z,95590.00
2018-09-04T06:09:46.188Z,95594.00
2018-09-04T06:10:18.279Z,95592.00
2018-09-04T06:10:50.346Z,95593.00
2018-09-04T06:11:22.549Z,95593.00
2018-09-04T06:11:54.694Z,95592.00
2018-09-04T06:12:26.820Z,95596.00
2018-09-04T06:12:58.936Z,95593.00
2018-09-04T06:13:31.084Z,95597.00
2018-09-04T06:14:03.105Z,95595.00
2018-09-04T06:14:35.334Z,95595.00
2018-09-04T06:15:07.399Z,95593.00
2018-09-04T06:15:39.500Z,95591.00
2018-09-04T06:16:11.564Z,95596.00
2018-09-04T06:16:43.653Z,95594.00
2018-09-04T06:17:15.762Z,95594.00